Terminal Aerodrome Forecast
Issued by NWS Grand Forks, ND

Home | Current Version | Previous Version | Text Only | Print | Product List | Glossary Off
Versions: 1 2 3 4 5 6 7 8 9 10 11 12 13 14 15 16 17 18 19

000
FTUS43 KFGF 251700
TAFFAR
TAF
KFAR 251720Z 2518/2618 11010KT P6SM OVC035
      TEMPO 2518/2520 OVC025
     FM252000 11012KT P6SM OVC035
     FM260400 12006KT P6SM OVC100=

USA.gov is the U.S. government's official web portal to all federal, state and local government web resources and services.